createdAt,value
2022-12-31T00:02:18.807Z,99722.66
2022-12-31T00:04:45.496Z,99730.31
2022-12-31T00:07:12.071Z,99720.06
2022-12-31T00:09:38.872Z,99722.38
2022-12-31T00:12:05.597Z,99728.53
2022-12-31T00:14:32.177Z,99721.47
2022-12-31T00:16:58.770Z,99724.28
2022-12-31T00:19:25.325Z,99733.53
2022-12-31T00:21:52.071Z,99732.13
2022-12-31T00:24:18.598Z,99730.28
2022-12-31T00:26:45.235Z,99732.34
2022-12-31T00:29:12.016Z,99716.41
2022-12-31T00:31:38.958Z,99710.47
2022-12-31T00:34:06.461Z,99715.19
2022-12-31T00:36:37.883Z,99704.31
2022-12-31T00:39:06.290Z,99725.28
2022-12-31T00:41:33.209Z,99700.69
2022-12-31T00:43:59.961Z,99705.09
2022-12-31T00:46:27.071Z,99734.63
2022-12-31T00:48:53.962Z,99728.50
2022-12-31T00:51:23.201Z,99728.00
2022-12-31T00:53:49.792Z,99721.34
2022-12-31T00:56:19.515Z,99727.97
2022-12-31T00:58:46.168Z,99716.50
2022-12-31T01:01:19.391Z,99709.34
2022-12-31T01:03:47.189Z,99736.66
2022-12-31T01:06:14.000Z,99719.13
2022-12-31T01:08:40.503Z,99748.84
2022-12-31T01:11:19.248Z,99737.56
2022-12-31T01:13:54.868Z,99730.28
2022-12-31T01:16:24.490Z,99754.09
2022-12-31T01:18:51.605Z,99734.94
2022-12-31T01:21:19.337Z,99738.75
2022-12-31T01:23:46.380Z,99756.72
2022-12-31T01:26:15.515Z,99737.69
2022-12-31T01:28:42.089Z,99763.25
2022-12-31T01:31:12.965Z,99716.00
2022-12-31T01:33:40.300Z,99718.66
2022-12-31T01:36:26.250Z,99747.25
2022-12-31T01:38:55.320Z,99745.94
2022-12-31T01:41:25.491Z,99743.81
2022-12-31T01:43:58.646Z,99751.88
2022-12-31T01:47:09.723Z,99760.53
2022-12-31T01:49:36.382Z,99740.50
2022-12-31T01:52:09.083Z,99766.41
2022-12-31T01:54:39.677Z,99771.00
2022-12-31T01:57:08.268Z,99762.25
2022-12-31T01:59:35.012Z,99754.38
2022-12-31T02:02:02.050Z,99785.09
2022-12-31T02:04:29.295Z,99765.06
2022-12-31T02:07:03.198Z,99773.63
2022-12-31T02:09:31.085Z,99794.41
2022-12-31T02:11:57.679Z,99775.06
2022-12-31T02:14:28.211Z,99786.13
2022-12-31T02:17:17.133Z,99787.44
2022-12-31T02:20:05.522Z,99792.47
2022-12-31T02:22:53.728Z,99785.81
2022-12-31T02:25:53.467Z,99796.59
2022-12-31T02:28:41.736Z,99781.28
2022-12-31T02:31:26.641Z,99783.72
2022-12-31T02:34:18.708Z,99802.13
2022-12-31T02:36:47.961Z,99799.63
2022-12-31T02:39:14.990Z,99794.81
2022-12-31T02:41:50.063Z,99798.09
2022-12-31T02:44:34.494Z,99814.94
2022-12-31T02:47:22.402Z,99805.28
2022-12-31T02:50:16.894Z,99813.63
2022-12-31T02:53:03.983Z,99805.69
2022-12-31T02:55:46.382Z,99806.28
2022-12-31T02:59:01.557Z,99818.19
2022-12-31T03:01:54.978Z,99812.31
2022-12-31T03:04:33.313Z,99822.59
2022-12-31T03:07:05.071Z,99825.31
2022-12-31T03:09:32.304Z,99826.44
2022-12-31T03:12:18.350Z,99834.69
2022-12-31T03:14:45.087Z,99835.16
2022-12-31T03:17:12.362Z,99834.75
2022-12-31T03:19:57.260Z,99845.94
2022-12-31T03:22:29.998Z,99842.19
2022-12-31T03:25:18.716Z,99848.06
2022-12-31T03:27:46.728Z,99840.91
2022-12-31T03:30:15.714Z,99852.00
2022-12-31T03:32:43.010Z,99838.72
2022-12-31T03:35:10.696Z,99847.75
2022-12-31T03:37:37.226Z,99858.84
2022-12-31T03:40:04.137Z,99846.56
2022-12-31T03:42:30.671Z,99862.56
2022-12-31T03:44:57.192Z,99848.78
2022-12-31T03:47:23.735Z,99850.78
2022-12-31T03:49:50.241Z,99855.59
2022-12-31T03:52:17.148Z,99863.84
2022-12-31T03:54:43.709Z,99877.34
2022-12-31T03:57:10.597Z,99882.78
2022-12-31T03:59:37.173Z,99893.06
2022-12-31T04:02:03.871Z,99894.22
2022-12-31T04:04:30.651Z,99887.28
2022-12-31T04:06:57.265Z,99879.84
2022-12-31T04:09:23.813Z,99880.44
2022-12-31T04:11:50.471Z,99886.69
2022-12-31T04:14:20.194Z,99888.69
2022-12-31T04:16:46.833Z,99907.31
2022-12-31T04:19:13.639Z,99906.03
2022-12-31T04:21:40.187Z,99907.38
2022-12-31T04:24:07.266Z,99894.19
2022-12-31T04:26:34.839Z,99896.56
2022-12-31T04:29:01.379Z,99893.25
2022-12-31T04:31:28.092Z,99882.38
2022-12-31T04:33:54.680Z,99897.00
2022-12-31T04:36:22.049Z,99894.28
2022-12-31T04:38:48.662Z,99892.56
2022-12-31T04:41:17.712Z,99898.69
2022-12-31T04:43:55.669Z,99912.28
2022-12-31T04:46:30.363Z,99905.63
2022-12-31T04:48:57.410Z,99898.56
2022-12-31T04:51:25.449Z,99898.28
2022-12-31T04:53:51.996Z,99910.97
2022-12-31T04:56:18.795Z,99907.75
2022-12-31T04:58:45.828Z,99911.69
2022-12-31T05:01:13.647Z,99926.00
2022-12-31T05:03:40.568Z,99915.56
2022-12-31T05:06:11.309Z,99924.91
2022-12-31T05:08:37.970Z,99913.13
2022-12-31T05:11:04.581Z,99911.66
2022-12-31T05:13:33.535Z,99910.16
2022-12-31T05:16:01.388Z,99913.41
2022-12-31T05:18:28.623Z,99913.13
2022-12-31T05:20:55.568Z,99909.97
2022-12-31T05:23:22.371Z,99914.34
2022-12-31T05:25:49.106Z,99915.31
2022-12-31T05:28:17.036Z,99914.69
2022-12-31T05:30:44.311Z,99912.25
2022-12-31T05:33:10.963Z,99909.63
2022-12-31T05:35:37.547Z,99911.34
2022-12-31T05:38:04.105Z,99909.22
2022-12-31T05:40:30.768Z,99909.63
2022-12-31T05:42:57.305Z,99916.28
2022-12-31T05:45:30.381Z,99932.25
2022-12-31T05:47:57.414Z,99936.78
2022-12-31T05:50:24.064Z,99950.59
2022-12-31T05:52:50.641Z,99951.13
2022-12-31T05:55:17.336Z,99954.44
2022-12-31T05:57:44.059Z,99958.66
2022-12-31T06:00:11.718Z,99950.41
2022-12-31T06:02:38.442Z,99959.69
2022-12-31T06:05:05.546Z,99949.34
2022-12-31T06:07:32.149Z,99953.03
2022-12-31T06:09:58.784Z,99952.13
2022-12-31T06:12:25.378Z,99961.63
2022-12-31T06:14:51.924Z,99958.06
2022-12-31T06:17:19.123Z,99969.03
2022-12-31T06:19:46.924Z,99963.91
2022-12-31T06:22:13.871Z,99968.25
2022-12-31T06:24:40.509Z,99962.41
2022-12-31T06:27:07.246Z,99977.53
2022-12-31T06:29:33.767Z,99972.78
2022-12-31T06:32:00.308Z,99972.59
2022-12-31T06:34:26.934Z,99976.44
2022-12-31T06:36:53.589Z,99977.28
2022-12-31T06:39:20.095Z,99984.63
2022-12-31T06:41:46.659Z,99988.50
2022-12-31T06:44:14.547Z,99994.66
2022-12-31T06:46:41.154Z,99985.28
2022-12-31T06:49:07.857Z,99991.84
2022-12-31T06:51:34.407Z,99995.97
2022-12-31T06:54:00.994Z,99997.28
2022-12-31T06:56:34.723Z,99996.34
2022-12-31T06:59:02.972Z,99994.75
2022-12-31T07:02:00.482Z,99998.88
2022-12-31T07:05:13.861Z,99992.84
2022-12-31T07:07:49.992Z,99996.75
2022-12-31T07:10:41.096Z,99997.34
2022-12-31T07:13:19.440Z,99994.63
2022-12-31T07:15:58.054Z,99983.66
2022-12-31T07:18:50.040Z,99989.63
2022-12-31T07:21:22.033Z,99997.09
2022-12-31T07:23:48.828Z,99993.75
2022-12-31T07:26:30.228Z,100003.84
2022-12-31T07:29:01.899Z,100015.38
2022-12-31T07:31:41.284Z,100021.25
2022-12-31T07:34:28.980Z,100032.25
2022-12-31T07:37:03.048Z,100032.66
2022-12-31T07:39:53.391Z,100033.16
2022-12-31T07:42:27.585Z,100043.66
2022-12-31T07:45:15.714Z,100045.28
2022-12-31T07:47:42.549Z,100041.63
2022-12-31T07:50:17.510Z,100048.28
2022-12-31T07:52:45.471Z,100058.78
2022-12-31T07:55:12.192Z,100050.63
2022-12-31T07:57:50.962Z,100049.94
2022-12-31T08:00:18.285Z,100049.91
2022-12-31T08:02:59.915Z,100050.94
2022-12-31T08:05:46.719Z,100048.72
2022-12-31T08:08:35.377Z,100056.78
2022-12-31T08:11:24.905Z,100063.22
2022-12-31T08:13:53.649Z,100055.53
2022-12-31T08:16:21.751Z,100063.81
2022-12-31T08:18:48.709Z,100058.66
2022-12-31T08:21:34.954Z,100056.25
2022-12-31T08:24:15.018Z,100058.69
2022-12-31T08:27:01.064Z,100055.34
2022-12-31T08:29:58.520Z,100061.50
2022-12-31T08:32:36.904Z,100050.63
2022-12-31T08:35:16.758Z,100044.03
2022-12-31T08:38:14.664Z,100045.75
2022-12-31T08:41:13.846Z,100064.38
2022-12-31T08:43:46.355Z,100042.53
2022-12-31T08:46:23.438Z,100055.97
2022-12-31T08:48:50.210Z,100052.34
2022-12-31T08:51:22.711Z,100045.75
2022-12-31T08:53:50.078Z,100038.22
2022-12-31T08:56:33.857Z,100042.28
2022-12-31T08:59:25.135Z,100055.38
2022-12-31T09:02:00.984Z,100061.69
2022-12-31T09:04:55.188Z,100064.41
2022-12-31T09:07:34.273Z,100054.81
2022-12-31T09:10:16.695Z,100076.25
2022-12-31T09:13:14.227Z,100068.06
2022-12-31T09:15:43.714Z,100062.06
2022-12-31T09:18:12.471Z,100059.06
2022-12-31T09:20:44.095Z,100062.47
2022-12-31T09:23:13.220Z,100058.38
2022-12-31T09:25:52.586Z,100058.28
2022-12-31T09:28:56.493Z,100039.25
2022-12-31T09:31:54.411Z,100026.09
2022-12-31T09:34:41.795Z,100032.03
2022-12-31T09:37:20.779Z,100034.50
2022-12-31T09:39:48.325Z,100044.00
2022-12-31T09:42:25.352Z,100035.78
2022-12-31T09:45:20.629Z,100033.03
2022-12-31T09:48:17.813Z,100023.81
2022-12-31T09:51:05.871Z,100030.53
2022-12-31T09:54:13.793Z,100036.13
2022-12-31T09:56:52.935Z,100050.16
2022-12-31T09:59:29.876Z,100044.91
2022-12-31T10:01:59.431Z,100049.41
2022-12-31T10:04:58.215Z,100053.28
2022-12-31T10:07:45.988Z,100039.50
2022-12-31T10:10:40.244Z,100035.13
2022-12-31T10:13:12.590Z,100036.69
2022-12-31T10:15:45.177Z,100034.56
2022-12-31T10:18:14.499Z,100041.00
2022-12-31T10:20:47.586Z,100035.88
2022-12-31T10:23:26.286Z,100036.28
2022-12-31T10:25:59.093Z,100039.22
2022-12-31T10:28:44.066Z,100029.13
2022-12-31T10:31:17.386Z,100039.97
2022-12-31T10:34:13.901Z,100031.22
2022-12-31T10:36:51.800Z,100030.31
2022-12-31T10:39:53.515Z,100033.03
2022-12-31T10:42:19.970Z,100034.91
2022-12-31T10:44:52.123Z,100028.22
2022-12-31T10:47:21.416Z,100029.78
2022-12-31T10:50:23.469Z,100025.16
2022-12-31T10:53:30.563Z,100030.13
2022-12-31T10:56:03.001Z,100036.75
2022-12-31T10:59:11.027Z,100038.56
2022-12-31T11:01:58.760Z,100032.00
2022-12-31T11:04:59.326Z,100035.06
2022-12-31T11:07:55.685Z,100019.28
2022-12-31T11:10:41.539Z,100022.50
2022-12-31T11:13:45.637Z,100014.44
2022-12-31T11:16:36.088Z,100019.91
2022-12-31T11:19:18.100Z,100013.47
2022-12-31T11:22:04.932Z,100029.25
2022-12-31T11:24:43.533Z,100010.13
2022-12-31T11:27:21.982Z,99999.34
2022-12-31T11:29:57.457Z,99991.78
2022-12-31T11:33:13.005Z,99997.22
2022-12-31T11:36:17.121Z,99982.66
2022-12-31T11:38:51.767Z,99987.38
2022-12-31T11:41:43.721Z,99984.97
2022-12-31T11:44:34.882Z,99995.59
2022-12-31T11:47:19.654Z,99985.41
2022-12-31T11:49:55.354Z,99971.44
2022-12-31T11:52:51.273Z,99987.81
2022-12-31T11:55:24.388Z,99988.94
2022-12-31T11:57:52.855Z,99999.16
2022-12-31T12:00:23.629Z,99994.78
2022-12-31T12:02:53.440Z,99999.03
2022-12-31T12:05:22.928Z,99994.38
2022-12-31T12:07:51.514Z,99984.72
2022-12-31T12:10:50.523Z,99993.84
2022-12-31T12:13:16.979Z,99978.72
2022-12-31T12:15:56.015Z,99988.63
2022-12-31T12:18:25.359Z,99963.63
2022-12-31T12:20:52.038Z,99976.44
2022-12-31T12:23:26.399Z,99970.56
2022-12-31T12:25:53.025Z,99977.59
2022-12-31T12:28:25.340Z,99985.84
2022-12-31T12:31:00.273Z,99966.44
2022-12-31T12:33:29.744Z,99954.56
2022-12-31T12:36:10.910Z,99973.59
2022-12-31T12:38:38.838Z,99967.63
2022-12-31T12:41:09.956Z,99973.34
2022-12-31T12:43:39.765Z,99974.03
2022-12-31T12:46:18.387Z,99963.06
2022-12-31T12:48:47.873Z,99954.69
2022-12-31T12:51:32.914Z,99966.59
2022-12-31T12:54:06.459Z,99965.69
2022-12-31T12:56:42.912Z,99968.41
2022-12-31T12:59:34.339Z,99974.63
2022-12-31T13:02:01.001Z,99984.97
2022-12-31T13:04:34.924Z,99983.75
2022-12-31T13:07:09.860Z,99978.03
2022-12-31T13:09:45.222Z,99980.69
2022-12-31T13:12:22.183Z,99969.88
2022-12-31T13:15:09.124Z,99986.13
2022-12-31T13:17:54.992Z,99983.53
2022-12-31T13:20:44.191Z,99977.09
2022-12-31T13:23:26.616Z,99978.09
2022-12-31T13:26:09.349Z,99976.47
2022-12-31T13:28:40.450Z,99967.97
2022-12-31T13:31:13.141Z,99969.91
2022-12-31T13:33:44.217Z,99981.38
2022-12-31T13:36:16.685Z,99993.50
2022-12-31T13:38:52.334Z,99990.97
2022-12-31T13:41:27.739Z,99991.44
2022-12-31T13:44:02.489Z,100000.00
2022-12-31T13:46:44.893Z,99995.25
2022-12-31T13:49:33.651Z,99992.16
2022-12-31T13:52:28.250Z,99990.09
2022-12-31T13:55:15.647Z,99988.75
2022-12-31T13:58:03.993Z,99985.66
2022-12-31T14:00:38.542Z,99992.47
2022-12-31T14:03:24.759Z,99998.66
2022-12-31T14:06:01.013Z,99995.25
2022-12-31T14:08:27.921Z,99992.75
2022-12-31T14:11:11.403Z,100000.38
2022-12-31T14:13:50.229Z,99997.44
2022-12-31T14:16:23.384Z,100006.03
2022-12-31T14:19:14.959Z,100000.06
2022-12-31T14:21:59.310Z,100005.22
2022-12-31T14:24:37.340Z,100012.19
2022-12-31T14:27:14.681Z,100015.28
2022-12-31T14:29:47.911Z,100021.38
2022-12-31T14:32:20.678Z,100014.81
2022-12-31T14:34:47.536Z,100022.69
2022-12-31T14:37:28.344Z,100009.53
2022-12-31T14:40:37.762Z,100018.00
2022-12-31T14:43:16.368Z,100010.69
2022-12-31T14:46:15.948Z,100018.56
2022-12-31T14:48:42.477Z,100019.06
2022-12-31T14:51:10.098Z,100023.59
2022-12-31T14:53:36.634Z,100011.19
2022-12-31T14:56:06.235Z,100015.53
2022-12-31T14:58:39.136Z,100017.53
2022-12-31T15:01:19.929Z,100022.91
2022-12-31T15:03:46.879Z,100026.03
2022-12-31T15:06:49.452Z,100010.13
2022-12-31T15:09:40.368Z,100013.56
2022-12-31T15:12:34.163Z,100021.97
2022-12-31T15:15:23.001Z,100023.44
2022-12-31T15:17:56.377Z,100021.84
2022-12-31T15:20:32.035Z,100027.16
2022-12-31T15:22:59.107Z,100023.28
2022-12-31T15:25:35.261Z,100025.56
2022-12-31T15:28:07.895Z,100027.31
2022-12-31T15:31:17.905Z,100026.34
2022-12-31T15:34:04.362Z,100014.91
2022-12-31T15:36:35.699Z,100020.22
2022-12-31T15:39:10.798Z,100019.28
2022-12-31T15:42:10.178Z,100017.19
2022-12-31T15:44:56.632Z,100028.59
2022-12-31T15:47:43.128Z,100016.84
2022-12-31T15:50:18.126Z,100031.34
2022-12-31T15:52:54.051Z,100017.34
2022-12-31T15:55:38.514Z,100023.13
2022-12-31T15:58:11.038Z,100023.78
2022-12-31T16:01:12.981Z,100026.34
2022-12-31T16:04:01.615Z,100026.03
2022-12-31T16:06:31.554Z,100026.38
2022-12-31T16:08:58.551Z,100028.59
2022-12-31T16:11:27.198Z,100018.13
2022-12-31T16:13:56.075Z,100031.34
2022-12-31T16:16:31.627Z,100029.25
2022-12-31T16:18:59.641Z,100030.53
2022-12-31T16:21:32.759Z,100021.66
2022-12-31T16:24:05.204Z,100026.16
2022-12-31T16:26:39.693Z,100012.16
2022-12-31T16:29:06.556Z,100018.28
2022-12-31T16:31:33.254Z,100023.47
2022-12-31T16:34:27.451Z,100017.81
2022-12-31T16:37:07.173Z,100011.81
2022-12-31T16:39:38.749Z,100014.97
2022-12-31T16:42:28.340Z,100023.72
2022-12-31T16:44:56.814Z,100024.53
2022-12-31T16:47:27.123Z,100027.31
2022-12-31T16:50:10.699Z,100021.53
2022-12-31T16:52:39.935Z,100024.75
2022-12-31T16:55:30.459Z,100018.63
2022-12-31T16:58:03.843Z,100018.28
2022-12-31T17:00:31.948Z,100017.66
2022-12-31T17:03:01.807Z,100020.69
2022-12-31T17:05:28.714Z,100016.34
2022-12-31T17:07:55.654Z,100012.81
2022-12-31T17:10:34.094Z,100014.75
2022-12-31T17:15:51.453Z,100024.06
2022-12-31T17:18:25.047Z,100021.97
2022-12-31T17:20:53.213Z,100017.59
2022-12-31T17:23:31.452Z,100028.09
2022-12-31T17:26:00.523Z,100016.34
2022-12-31T17:28:32.066Z,100019.91
2022-12-31T17:31:01.742Z,100015.25
2022-12-31T17:33:30.646Z,100016.41
2022-12-31T17:36:14.907Z,100020.91
2022-12-31T17:38:42.059Z,100017.50
2022-12-31T17:41:08.516Z,100013.66
2022-12-31T17:43:38.977Z,100017.22
2022-12-31T17:46:14.906Z,100015.28
2022-12-31T17:48:42.052Z,100004.94
2022-12-31T17:51:09.020Z,100014.59
2022-12-31T17:53:35.730Z,100017.69
2022-12-31T17:56:07.626Z,100008.34
2022-12-31T17:58:44.946Z,100020.25
2022-12-31T18:01:15.938Z,100024.13
2022-12-31T18:03:43.895Z,100020.41
2022-12-31T18:06:16.383Z,100032.50
2022-12-31T18:08:43.525Z,100031.03
2022-12-31T18:11:24.592Z,100036.00
2022-12-31T18:13:52.980Z,100039.09
2022-12-31T18:16:19.614Z,100044.28
2022-12-31T18:18:46.154Z,100035.06
2022-12-31T18:21:27.960Z,100030.91
2022-12-31T18:26:24.477Z,100042.34
2022-12-31T18:28:51.557Z,100040.59
2022-12-31T18:31:27.807Z,100038.16
2022-12-31T18:33:57.135Z,100040.44
2022-12-31T18:36:24.819Z,100043.66
2022-12-31T18:38:51.501Z,100034.16
2022-12-31T18:41:21.517Z,100038.00
2022-12-31T18:43:48.765Z,100027.38
2022-12-31T18:46:18.288Z,100025.78
2022-12-31T18:48:45.263Z,100017.56
2022-12-31T18:51:16.736Z,100010.94
2022-12-31T18:53:43.266Z,100016.41
2022-12-31T18:56:15.757Z,100024.47
2022-12-31T18:58:42.873Z,100022.69
2022-12-31T19:01:34.873Z,100020.63
2022-12-31T19:04:03.653Z,100015.13
2022-12-31T19:06:30.650Z,100018.34
2022-12-31T19:08:59.123Z,100027.69
2022-12-31T19:11:27.389Z,100023.81
2022-12-31T19:13:53.961Z,100027.50
2022-12-31T19:16:20.557Z,100018.47
2022-12-31T19:18:47.596Z,100015.75
2022-12-31T19:21:19.636Z,100020.91
2022-12-31T19:23:46.342Z,100021.06
2022-12-31T19:26:21.139Z,100014.81
2022-12-31T19:28:49.079Z,100016.28
2022-12-31T19:31:16.125Z,100012.06
2022-12-31T19:33:43.830Z,100019.47
2022-12-31T19:36:18.528Z,100011.88
2022-12-31T19:38:45.779Z,100015.44
2022-12-31T19:41:20.402Z,100019.44
2022-12-31T19:43:48.030Z,100013.84
2022-12-31T19:46:16.380Z,100011.53
2022-12-31T19:48:43.409Z,100016.34
2022-12-31T19:51:12.518Z,100017.47
2022-12-31T19:53:39.469Z,100017.91
2022-12-31T19:56:06.824Z,100014.44
2022-12-31T19:58:33.372Z,100008.84
2022-12-31T20:01:02.890Z,100006.94
2022-12-31T20:03:32.453Z,100009.50
2022-12-31T20:06:08.239Z,100001.94
2022-12-31T20:08:36.187Z,100005.63
2022-12-31T20:11:20.797Z,100004.50
2022-12-31T20:13:48.543Z,99997.88
2022-12-31T20:16:17.577Z,100009.97
2022-12-31T20:18:45.762Z,100007.72
2022-12-31T20:21:18.751Z,100011.56
2022-12-31T20:23:48.048Z,100014.16
2022-12-31T20:26:14.716Z,100006.41
2022-12-31T20:28:41.296Z,100012.84
2022-12-31T20:31:10.058Z,100003.66
2022-12-31T20:33:36.765Z,100002.22
2022-12-31T20:36:05.530Z,100012.72
2022-12-31T20:38:32.287Z,100003.38
2022-12-31T20:41:09.942Z,100000.47
2022-12-31T20:43:36.690Z,99991.47
2022-12-31T20:46:14.532Z,99997.41
2022-12-31T20:48:42.707Z,99990.34
2022-12-31T20:51:09.258Z,99984.38
2022-12-31T20:53:35.801Z,99989.19
2022-12-31T20:56:06.226Z,99988.06
2022-12-31T20:58:32.821Z,99994.19
2022-12-31T21:00:59.522Z,99993.81
2022-12-31T21:04:02.929Z,99991.41
2022-12-31T21:06:13.495Z,99984.56
2022-12-31T21:08:40.363Z,99982.06
2022-12-31T21:11:27.783Z,99978.19
2022-12-31T21:13:55.767Z,99974.13
2022-12-31T21:16:22.725Z,99985.78
2022-12-31T21:18:49.312Z,99990.09
2022-12-31T21:21:15.919Z,99986.31
2022-12-31T21:23:42.462Z,99993.50
2022-12-31T21:26:08.990Z,99986.06
2022-12-31T21:28:35.832Z,99982.97
2022-12-31T21:31:05.457Z,99980.38
2022-12-31T21:33:32.079Z,99977.41
2022-12-31T21:36:04.116Z,99981.38
2022-12-31T21:38:31.361Z,99986.78
2022-12-31T21:41:06.371Z,99982.88
2022-12-31T21:43:33.213Z,99981.88
2022-12-31T21:46:05.071Z,99987.06
2022-12-31T21:48:31.916Z,99992.66
2022-12-31T21:51:12.819Z,99994.53
2022-12-31T21:53:39.428Z,99999.16
2022-12-31T21:56:09.595Z,100004.75
2022-12-31T21:58:41.460Z,99990.00
2022-12-31T22:01:33.724Z,99990.97
2022-12-31T22:04:00.383Z,99985.97
2022-12-31T22:06:27.047Z,99990.25
2022-12-31T22:08:55.711Z,99981.34
2022-12-31T22:11:25.303Z,99981.34
2022-12-31T22:13:52.571Z,99987.41
2022-12-31T22:16:20.299Z,99981.69
2022-12-31T22:18:47.370Z,99974.59
2022-12-31T22:21:19.366Z,99970.06
2022-12-31T22:23:52.214Z,99964.72
2022-12-31T22:26:21.758Z,99966.28
2022-12-31T22:28:48.542Z,99957.03
2022-12-31T22:31:18.008Z,99962.38
2022-12-31T22:33:45.436Z,99963.00
2022-12-31T22:36:15.030Z,99962.47
2022-12-31T22:38:42.360Z,99961.28
2022-12-31T22:41:20.098Z,99970.78
2022-12-31T22:43:49.129Z,99966.47
2022-12-31T22:46:27.183Z,99964.88
2022-12-31T22:48:56.999Z,99960.38
2022-12-31T22:51:23.550Z,99964.25
2022-12-31T22:53:50.105Z,99966.50
2022-12-31T22:56:18.036Z,99966.50
2022-12-31T22:58:45.559Z,99971.97
2022-12-31T23:01:21.874Z,99963.25
2022-12-31T23:03:50.990Z,99963.25
2022-12-31T23:06:18.851Z,99963.25
2022-12-31T23:09:03.876Z,99961.66
2022-12-31T23:11:31.211Z,99956.03
2022-12-31T23:14:16.312Z,99957.31
2022-12-31T23:17:01.700Z,99964.56
2022-12-31T23:20:06.715Z,99965.88
2022-12-31T23:22:52.200Z,99969.88
2022-12-31T23:25:18.906Z,99977.47
2022-12-31T23:27:45.455Z,99974.25
2022-12-31T23:30:12.412Z,99976.81
2022-12-31T23:32:38.963Z,99978.41
2022-12-31T23:35:09.787Z,99971.19
2022-12-31T23:37:36.762Z,99982.94
2022-12-31T23:40:03.712Z,99977.44
2022-12-31T23:42:30.241Z,99978.41
2022-12-31T23:44:56.744Z,99971.50
2022-12-31T23:47:23.317Z,99974.41
2022-12-31T23:49:49.964Z,99976.00
2022-12-31T23:52:16.499Z,99965.97
2022-12-31T23:54:43.033Z,99963.25
2022-12-31T23:57:09.537Z,99958.13
2022-12-31T23:59:36.289Z,99947.34
